Time;durP1;ratioP1;P1;durP2;ratioP2;P2;SDS_P1;SDS_P2;PMS_P1;PMS_P2;Temp;Humidity;BMP_temperature;BMP_pressure;BME280_temperature;BME280_humidity;BME280_pressure;Samples;Min_cycle;Max_cycle;Signal;HPM_P1;HPM_P2
2022/10/16 00:01:11;;;;;;;1.70;1.27;;;23.00;62.00;;;;;;5095178;28;20037;-46
2022/10/16 00:03:38;;;;;;;1.55;1.40;;;23.00;62.00;;;;;;5100735;28;20040;-44
2022/10/16 00:06:04;;;;;;;2.50;1.60;;;23.00;61.90;;;;;;5104464;28;20043;-43
2022/10/16 00:08:31;;;;;;;1.70;1.27;;;23.00;61.90;;;;;;5104615;28;20036;-44
2022/10/16 00:11:07;;;;;;;4.30;1.40;;;23.00;61.80;;;;;;5103761;28;20055;-43
2022/10/16 00:13:33;;;;;;;2.67;1.80;;;23.00;61.60;;;;;;5104408;28;20024;-43
2022/10/16 00:16:00;;;;;;;2.22;1.58;;;23.00;61.70;;;;;;5104123;28;20491;-46
2022/10/16 00:18:26;;;;;;;2.00;1.60;;;23.00;61.70;;;;;;5104446;28;20078;-44
2022/10/16 00:20:53;;;;;;;2.85;1.75;;;23.00;61.60;;;;;;5103824;28;20028;-43
2022/10/16 00:23:19;;;;;;;2.70;1.52;;;22.90;61.60;;;;;;5104185;28;20767;-45
2022/10/16 00:25:45;;;;;;;2.63;1.70;;;22.90;61.50;;;;;;5103831;28;20050;-43
2022/10/16 00:28:11;;;;;;;1.65;1.38;;;22.90;61.50;;;;;;5102470;28;20123;-43
2022/10/16 00:30:57;;;;;;;2.35;1.40;;;22.90;61.70;;;;;;5060361;28;20518;-43
2022/10/16 00:33:24;;;;;;;2.05;1.67;;;22.90;61.80;;;;;;5062759;28;20037;-44
2022/10/16 00:35:50;;;;;;;3.17;1.52;;;22.90;61.80;;;;;;5060737;28;20041;-43
2022/10/16 00:38:16;;;;;;;1.90;1.35;;;22.90;61.80;;;;;;5061150;28;20021;-45
2022/10/16 00:40:42;;;;;;;1.97;1.50;;;22.90;61.90;;;;;;5060557;28;20032;-43
2022/10/16 00:43:34;;;;;;;1.85;1.40;;;22.90;61.80;;;;;;5060816;28;20065;-43
2022/10/16 00:46:04;;;;;;;1.73;1.60;;;22.90;61.70;;;;;;5060648;28;20025;-45
2022/10/16 00:48:30;;;;;;;1.67;1.50;;;22.90;61.70;;;;;;5060903;28;20032;-43
2022/10/16 00:50:56;;;;;;;2.83;1.50;;;22.90;61.70;;;;;;5060307;28;20032;-42
2022/10/16 00:53:23;;;;;;;2.05;1.65;;;22.90;61.60;;;;;;5060579;28;20906;-45
2022/10/16 00:55:49;;;;;;;1.70;1.40;;;22.80;61.20;;;;;;5060628;28;20052;-45
2022/10/16 00:58:15;;;;;;;3.50;1.70;;;22.80;60.70;;;;;;5060684;28;20417;-44
2022/10/16 01:00:41;;;;;;;2.55;1.52;;;22.80;60.50;;;;;;5059017;28;20037;-43
2022/10/16 01:03:42;;;;;;;2.65;1.60;;;22.80;60.40;;;;;;5074117;28;20067;-43
2022/10/16 01:06:31;;;;;;;2.13;1.60;;;22.80;60.20;;;;;;5060198;28;20028;-43
2022/10/16 01:09:28;;;;;;;2.80;1.55;;;22.80;60.40;;;;;;5044723;28;20044;-43
2022/10/16 01:11:55;;;;;;;1.85;1.48;;;22.80;60.30;;;;;;5059615;28;20091;-43
2022/10/16 01:14:41;;;;;;;1.67;1.40;;;22.70;60.30;;;;;;5060224;28;20041;-44
2022/10/16 01:17:12;;;;;;;2.38;1.73;;;22.70;60.30;;;;;;5053171;28;20089;-43
2022/10/16 01:20:05;;;;;;;2.45;1.60;;;22.70;60.20;;;;;;5060090;28;20031;-43
2022/10/16 01:22:38;;;;;;;1.98;1.45;;;22.70;60.20;;;;;;5059240;28;20028;-43
2022/10/16 01:25:06;;;;;;;2.00;1.52;;;22.70;60.20;;;;;;5043729;28;20084;-43
2022/10/16 01:27:32;;;;;;;1.77;1.55;;;22.70;60.20;;;;;;5043786;28;20514;-43
2022/10/16 01:30:13;;;;;;;3.15;1.90;;;22.70;60.10;;;;;;5050242;28;20041;-44
2022/10/16 01:32:50;;;;;;;1.60;1.50;;;22.60;60.00;;;;;;5043061;28;20033;-44
2022/10/16 01:35:29;;;;;;;2.25;1.60;;;22.60;60.00;;;;;;5043694;28;20025;-43
2022/10/16 01:38:14;;;;;;;2.03;1.63;;;22.60;60.00;;;;;;5028356;28;20033;-43
2022/10/16 01:40:42;;;;;;;2.05;1.50;;;22.60;60.00;;;;;;5090221;28;20058;-43
2022/10/16 01:43:27;;;;;;;2.03;1.50;;;22.60;60.10;;;;;;5101512;28;20039;-43
2022/10/16 01:45:53;;;;;;;3.22;1.75;;;22.60;59.90;;;;;;5101635;28;20020;-43
2022/10/16 01:48:19;;;;;;;1.73;1.63;;;22.60;60.00;;;;;;5101329;28;20035;-45
2022/10/16 01:51:03;;;;;;;1.67;1.40;;;22.60;60.00;;;;;;5102619;28;20028;-42
2022/10/16 01:53:29;;;;;;;2.17;1.60;;;22.50;60.00;;;;;;5102958;28;20047;-43
2022/10/16 01:55:55;;;;;;;1.60;1.50;;;22.50;60.00;;;;;;5102785;28;20437;-43
2022/10/16 01:58:21;;;;;;;1.50;1.40;;;22.50;60.00;;;;;;5084867;28;20024;-44
2022/10/16 02:00:47;;;;;;;2.10;1.70;;;22.50;60.00;;;;;;5096797;28;20489;-43
2022/10/16 02:03:15;;;;;;;3.00;1.60;;;22.50;60.00;;;;;;5095605;28;20058;-43
2022/10/16 02:05:48;;;;;;;1.40;1.30;;;22.50;60.00;;;;;;5118615;28;20030;-43
2022/10/16 02:08:14;;;;;;;2.15;1.50;;;22.50;60.00;;;;;;5102999;28;20031;-43
2022/10/16 02:10:40;;;;;;;1.40;1.30;;;22.40;60.00;;;;;;5102487;28;20028;-44
2022/10/16 02:13:11;;;;;;;2.35;1.70;;;22.40;60.00;;;;;;5102246;28;20039;-44
2022/10/16 02:15:37;;;;;;;2.40;1.75;;;22.40;60.00;;;;;;5135470;28;20028;-43
2022/10/16 02:18:04;;;;;;;1.52;1.38;;;22.40;60.10;;;;;;5102402;28;20028;-45
2022/10/16 02:21:02;;;;;;;1.95;1.50;;;22.40;60.10;;;;;;5135142;28;20571;-44
2022/10/16 02:23:54;;;;;;;2.47;1.50;;;22.40;60.10;;;;;;5097057;28;20067;-44
2022/10/16 02:26:47;;;;;;;1.60;1.50;;;22.40;60.10;;;;;;5120943;28;20056;-43
2022/10/16 02:29:16;;;;;;;1.90;1.70;;;22.30;60.10;;;;;;5092028;28;20033;-45
2022/10/16 02:31:45;;;;;;;2.70;1.58;;;22.30;60.10;;;;;;5087964;28;20045;-44
2022/10/16 02:34:11;;;;;;;1.67;1.30;;;22.30;60.10;;;;;;5103784;28;20169;-44
2022/10/16 02:36:37;;;;;;;1.50;1.40;;;22.30;60.20;;;;;;5104940;28;20023;-43
2022/10/16 02:39:04;;;;;;;1.80;1.52;;;22.30;60.20;;;;;;5105065;28;20108;-45
2022/10/16 02:41:30;;;;;;;2.07;1.53;;;22.30;60.20;;;;;;5105967;28;20026;-44
2022/10/16 02:43:56;;;;;;;3.00;1.23;;;22.20;60.10;;;;;;5121553;28;20043;-45
2022/10/16 02:46:23;;;;;;;1.88;1.65;;;22.20;60.20;;;;;;5105936;28;20028;-43
2022/10/16 02:48:49;;;;;;;2.05;1.70;;;22.20;60.10;;;;;;5105816;28;20039;-43
2022/10/16 02:51:15;;;;;;;2.22;1.60;;;22.20;60.10;;;;;;5105923;28;20028;-44
2022/10/16 02:53:41;;;;;;;2.25;1.52;;;22.20;60.20;;;;;;5105462;28;20058;-43
2022/10/16 02:56:07;;;;;;;2.03;1.40;;;22.20;61.00;;;;;;5105831;28;20744;-44
2022/10/16 02:58:33;;;;;;;1.60;1.50;;;22.20;60.20;;;;;;5105835;28;20028;-43
2022/10/16 03:00:59;;;;;;;2.08;1.65;;;22.10;60.30;;;;;;5097812;28;20036;-43
2022/10/16 03:03:25;;;;;;;2.10;1.50;;;22.10;60.30;;;;;;5100412;28;20040;-42
2022/10/16 03:05:51;;;;;;;3.05;1.70;;;22.10;60.30;;;;;;5105607;28;20020;-43
2022/10/16 03:08:23;;;;;;;1.63;1.52;;;22.10;60.30;;;;;;5105829;28;20050;-42
2022/10/16 03:10:49;;;;;;;1.92;1.67;;;22.10;60.30;;;;;;5104932;28;20036;-43
2022/10/16 03:13:15;;;;;;;1.65;1.55;;;22.10;60.30;;;;;;5104911;28;20020;-43
2022/10/16 03:15:41;;;;;;;2.15;1.67;;;22.00;60.30;;;;;;5105403;28;20613;-43
2022/10/16 03:18:07;;;;;;;1.70;1.60;;;22.00;60.30;;;;;;5105342;28;20198;-42
2022/10/16 03:20:34;;;;;;;2.95;1.63;;;22.00;60.30;;;;;;5105524;28;20028;-44
2022/10/16 03:23:00;;;;;;;1.90;1.65;;;22.00;60.40;;;;;;5104873;28;20036;-44
2022/10/16 03:25:26;;;;;;;1.50;1.40;;;22.00;60.40;;;;;;5105373;28;20522;-42
2022/10/16 03:27:52;;;;;;;2.47;1.52;;;22.00;60.30;;;;;;5094739;28;20063;-44
2022/10/16 03:30:18;;;;;;;1.63;1.50;;;22.00;60.40;;;;;;5085297;28;20032;-44
2022/10/16 03:32:44;;;;;;;1.97;1.70;;;21.90;60.30;;;;;;5104472;28;20028;-44
2022/10/16 03:35:11;;;;;;;2.17;1.95;;;22.00;60.50;;;;;;5104872;28;20060;-43
2022/10/16 03:37:37;;;;;;;1.77;1.58;;;21.90;60.50;;;;;;5105058;28;20039;-43
2022/10/16 03:40:04;;;;;;;2.15;1.50;;;21.90;60.40;;;;;;5105178;28;20118;-43
2022/10/16 03:42:30;;;;;;;3.67;1.60;;;21.90;60.50;;;;;;5104536;28;20035;-43
2022/10/16 03:44:56;;;;;;;1.90;1.80;;;21.90;60.50;;;;;;5104458;28;20040;-43
2022/10/16 03:47:23;;;;;;;2.75;1.55;;;21.80;60.50;;;;;;5104850;28;20028;-44
2022/10/16 03:49:49;;;;;;;1.98;1.77;;;21.80;60.50;;;;;;5104717;28;20068;-43
2022/10/16 03:52:16;;;;;;;1.85;1.70;;;21.80;60.50;;;;;;5104670;28;20020;-43
2022/10/16 03:54:42;;;;;;;2.13;1.73;;;21.80;60.50;;;;;;5104299;28;20016;-42
2022/10/16 03:57:08;;;;;;;2.53;1.73;;;21.80;60.60;;;;;;5104503;28;20032;-42
2022/10/16 03:59:34;;;;;;;3.30;1.33;;;21.80;60.60;;;;;;5104620;28;20028;-42
2022/10/16 04:02:00;;;;;;;2.60;1.80;;;21.80;60.60;;;;;;5091190;28;20028;-42
2022/10/16 04:04:26;;;;;;;2.30;1.85;;;21.70;60.60;;;;;;5104145;28;20032;-43
2022/10/16 04:06:52;;;;;;;2.30;1.52;;;21.70;60.60;;;;;;5104354;28;20020;-43
2022/10/16 04:09:18;;;;;;;2.53;1.70;;;21.70;61.40;;;;;;5104497;28;20046;-42
2022/10/16 04:11:44;;;;;;;2.22;1.52;;;21.70;60.70;;;;;;5102910;28;20044;-44
2022/10/16 04:14:11;;;;;;;1.60;1.45;;;21.70;60.70;;;;;;5083651;28;20733;-42
2022/10/16 04:16:37;;;;;;;1.83;1.60;;;21.70;60.70;;;;;;5083829;28;20111;-44
2022/10/16 04:19:03;;;;;;;1.95;1.75;;;21.60;60.60;;;;;;5083925;28;20032;-43
2022/10/16 04:21:29;;;;;;;2.30;2.08;;;21.60;60.60;;;;;;5083981;28;20055;-44
2022/10/16 04:23:55;;;;;;;2.20;1.80;;;21.60;60.70;;;;;;5083739;28;20084;-42
2022/10/16 04:26:21;;;;;;;2.75;2.13;;;21.60;60.80;;;;;;5083609;28;20032;-43
2022/10/16 04:28:47;;;;;;;2.05;1.65;;;21.60;60.70;;;;;;5102125;28;20089;-42
2022/10/16 04:31:14;;;;;;;3.00;1.75;;;21.60;60.80;;;;;;5094699;28;20029;-42
2022/10/16 04:33:42;;;;;;;2.77;1.97;;;21.60;60.80;;;;;;5100790;28;20084;-42
2022/10/16 04:36:09;;;;;;;2.22;2.03;;;21.50;60.80;;;;;;5102383;28;20073;-42
2022/10/16 04:38:37;;;;;;;2.33;1.85;;;21.50;60.80;;;;;;5104055;28;20028;-43
2022/10/16 04:41:03;;;;;;;2.78;2.00;;;21.50;60.80;;;;;;5103903;28;20084;-43
2022/10/16 04:43:30;;;;;;;2.00;1.80;;;21.50;60.90;;;;;;5103551;28;20066;-44
2022/10/16 04:45:56;;;;;;;3.08;1.80;;;21.50;61.00;;;;;;5103399;28;20111;-42
2022/10/16 04:48:22;;;;;;;2.30;1.80;;;21.50;60.90;;;;;;5103607;28;20131;-44
2022/10/16 04:50:48;;;;;;;2.80;2.08;;;21.50;61.00;;;;;;5103616;28;20020;-44
2022/10/16 04:53:14;;;;;;;2.65;2.00;;;21.50;61.00;;;;;;5103804;28;20547;-44
2022/10/16 04:55:41;;;;;;;2.28;1.83;;;21.40;60.90;;;;;;5103267;28;20034;-43
2022/10/16 04:58:07;;;;;;;3.80;2.08;;;21.40;61.00;;;;;;5103018;28;20028;-43
2022/10/16 05:00:34;;;;;;;3.73;2.27;;;21.40;61.00;;;;;;5100137;28;20032;-42
2022/10/16 05:03:00;;;;;;;2.03;1.90;;;21.40;61.00;;;;;;5094654;28;20024;-44
2022/10/16 05:05:27;;;;;;;1.90;1.70;;;21.40;61.00;;;;;;5103037;28;20032;-43
2022/10/16 05:07:53;;;;;;;2.47;2.05;;;21.40;61.10;;;;;;5103580;28;20039;-43
2022/10/16 05:10:19;;;;;;;2.60;2.03;;;21.40;61.10;;;;;;5103176;28;20039;-43
2022/10/16 05:12:46;;;;;;;2.40;2.08;;;21.30;61.10;;;;;;5103185;28;20115;-42
2022/10/16 05:15:12;;;;;;;2.45;2.03;;;21.30;61.10;;;;;;5135778;27;20016;-43
2022/10/16 05:17:38;;;;;;;2.55;2.10;;;21.30;61.10;;;;;;5103022;28;20028;-42
2022/10/16 05:20:05;;;;;;;2.10;1.90;;;21.30;61.10;;;;;;5103250;28;20056;-46
2022/10/16 05:22:31;;;;;;;4.13;2.15;;;21.30;61.20;;;;;;5103261;28;20028;-43
2022/10/16 05:24:57;;;;;;;3.25;2.13;;;21.30;61.30;;;;;;5101475;28;20374;-43
2022/10/16 05:27:23;;;;;;;2.45;2.10;;;21.20;61.20;;;;;;5102842;28;20031;-42
2022/10/16 05:29:50;;;;;;;2.38;2.17;;;21.20;61.20;;;;;;5103014;28;20134;-45
2022/10/16 05:32:16;;;;;;;2.53;2.10;;;21.20;61.30;;;;;;5090299;28;20028;-42
2022/10/16 05:34:42;;;;;;;2.00;1.80;;;21.20;61.30;;;;;;5102650;28;20031;-42
2022/10/16 05:37:08;;;;;;;2.47;2.28;;;21.20;61.30;;;;;;5103257;28;20299;-42
2022/10/16 05:39:36;;;;;;;2.70;2.17;;;21.10;61.20;;;;;;5103120;28;20805;-46
2022/10/16 05:42:03;;;;;;;3.42;2.20;;;21.10;61.20;;;;;;5103066;28;20047;-43
2022/10/16 05:44:29;;;;;;;2.20;2.00;;;21.10;62.10;;;;;;5102881;28;20032;-42
2022/10/16 05:46:55;;;;;;;3.08;2.03;;;21.10;61.30;;;;;;5102878;28;20257;-43
2022/10/16 05:49:21;;;;;;;2.20;2.00;;;21.10;61.40;;;;;;5102975;28;20094;-42
2022/10/16 05:51:47;;;;;;;2.55;2.20;;;21.10;61.40;;;;;;5102760;28;20024;-43
2022/10/16 05:54:13;;;;;;;2.70;2.15;;;21.00;61.40;;;;;;5102603;28;20050;-42
2022/10/16 05:56:39;;;;;;;2.33;2.08;;;21.00;61.40;;;;;;5102833;28;20024;-43
2022/10/16 05:59:05;;;;;;;2.92;2.25;;;21.00;61.40;;;;;;5102900;28;20024;-44
2022/10/16 06:01:32;;;;;;;2.47;2.10;;;21.00;61.40;;;;;;5090283;28;20036;-42
2022/10/16 06:03:58;;;;;;;2.55;2.17;;;21.00;61.50;;;;;;5102264;28;20039;-41
2022/10/16 06:06:26;;;;;;;3.80;2.00;;;21.00;61.60;;;;;;5102404;28;20032;-45
2022/10/16 06:08:52;;;;;;;2.58;2.20;;;21.00;61.50;;;;;;5105014;28;20024;-42
2022/10/16 06:11:20;;;;;;;3.08;2.30;;;20.90;61.50;;;;;;5105487;28;20052;-43
2022/10/16 06:13:52;;;;;;;2.42;2.22;;;20.90;61.50;;;;;;5107072;28;20038;-42
2022/10/16 06:16:18;;;;;;;2.20;2.00;;;20.90;61.50;;;;;;5106215;28;20024;-43
2022/10/16 06:18:45;;;;;;;3.03;2.50;;;20.90;61.50;;;;;;5106387;28;20049;-42
2022/10/16 06:21:14;;;;;;;3.17;2.55;;;20.90;61.60;;;;;;5106427;28;20087;-42
2022/10/16 06:23:40;;;;;;;3.05;2.40;;;20.90;61.60;;;;;;5104980;28;20048;-43
2022/10/16 06:26:10;;;;;;;3.67;2.28;;;20.90;61.60;;;;;;5106220;28;20027;-42
2022/10/16 06:28:36;;;;;;;2.58;2.33;;;20.90;61.70;;;;;;5094687;28;20027;-42
2022/10/16 06:31:02;;;;;;;2.97;2.40;;;20.80;61.60;;;;;;5097572;28;20128;-44
2022/10/16 06:33:29;;;;;;;2.60;2.40;;;20.80;61.70;;;;;;5101936;28;20620;-42
2022/10/16 06:36:04;;;;;;;2.45;2.25;;;20.80;61.70;;;;;;5105917;28;20039;-44
2022/10/16 06:38:30;;;;;;;2.92;2.53;;;20.80;61.70;;;;;;5106439;28;20028;-44
2022/10/16 06:40:56;;;;;;;2.83;2.30;;;20.80;61.80;;;;;;5106361;28;20032;-42
2022/10/16 06:43:22;;;;;;;2.22;2.03;;;20.80;61.80;;;;;;5106011;28;20182;-43
2022/10/16 06:45:53;;;;;;;2.88;2.33;;;20.70;61.80;;;;;;5105983;28;20024;-44
2022/10/16 06:48:19;;;;;;;2.72;2.22;;;20.70;61.80;;;;;;5105928;28;20038;-42
2022/10/16 06:50:58;;;;;;;2.70;2.13;;;20.70;61.80;;;;;;5105874;28;20028;-43
2022/10/16 06:53:24;;;;;;;2.40;2.20;;;20.70;61.90;;;;;;5106083;28;20115;-42
2022/10/16 06:55:51;;;;;;;3.13;2.50;;;20.60;61.80;;;;;;5105117;28;20020;-42
2022/10/16 06:58:17;;;;;;;3.22;2.22;;;20.70;61.80;;;;;;5105879;28;20058;-42
2022/10/16 07:00:43;;;;;;;3.03;2.22;;;20.60;61.80;;;;;;5100129;28;20024;-43
2022/10/16 07:03:09;;;;;;;2.67;2.10;;;20.60;61.80;;;;;;5094604;28;20047;-43
2022/10/16 07:05:41;;;;;;;3.30;2.75;;;20.60;61.90;;;;;;5098675;28;20027;-42
2022/10/16 07:08:08;;;;;;;2.22;2.03;;;20.60;61.90;;;;;;5098587;28;20033;-44
2022/10/16 07:10:34;;;;;;;3.28;2.20;;;20.60;61.90;;;;;;5098696;28;20032;-42
2022/10/16 07:13:00;;;;;;;2.33;2.13;;;20.60;61.90;;;;;;5097901;28;20060;-42
2022/10/16 07:15:26;;;;;;;2.72;2.33;;;20.60;61.90;;;;;;5098230;28;20020;-44
2022/10/16 07:17:52;;;;;;;2.63;2.33;;;20.50;61.90;;;;;;5098763;28;20080;-42
2022/10/16 07:20:18;;;;;;;3.78;2.30;;;20.50;61.90;;;;;;5096988;28;20028;-42
2022/10/16 07:22:44;;;;;;;2.42;2.20;;;20.50;62.00;;;;;;5097081;28;20036;-43
2022/10/16 07:25:11;;;;;;;3.20;2.50;;;20.50;62.00;;;;;;5098647;28;20036;-44
2022/10/16 07:27:37;;;;;;;2.47;2.28;;;20.50;62.00;;;;;;5097789;28;20024;-43
2022/10/16 07:30:04;;;;;;;2.30;2.10;;;20.50;62.00;;;;;;5098739;28;20117;-44
2022/10/16 07:32:31;;;;;;;2.80;2.30;;;20.50;62.10;;;;;;5099881;28;20042;-42
2022/10/16 07:34:57;;;;;;;3.00;2.40;;;20.40;62.00;;;;;;5104010;28;20115;-44
2022/10/16 07:37:23;;;;;;;2.70;2.22;;;20.40;62.10;;;;;;5104755;28;20032;-43
2022/10/16 07:39:50;;;;;;;2.77;2.40;;;20.40;62.10;;;;;;5105364;28;20448;-43
2022/10/16 07:42:16;;;;;;;2.50;2.30;;;20.40;62.10;;;;;;5105059;28;20264;-44
2022/10/16 07:44:42;;;;;;;3.92;2.40;;;20.40;62.10;;;;;;5105223;28;20039;-42
2022/10/16 07:47:08;;;;;;;3.10;2.58;;;20.40;62.10;;;;;;5104431;28;20583;-42
2022/10/16 07:49:34;;;;;;;2.80;2.33;;;20.30;62.10;;;;;;5104964;28;20094;-43
2022/10/16 07:52:00;;;;;;;3.28;2.60;;;20.30;62.10;;;;;;5104689;28;20058;-44
2022/10/16 07:54:26;;;;;;;2.50;2.30;;;20.30;62.20;;;;;;5104737;28;20039;-43
2022/10/16 07:56:52;;;;;;;2.42;2.20;;;20.30;62.20;;;;;;5104432;28;20077;-42
2022/10/16 07:59:18;;;;;;;2.80;2.30;;;20.30;62.20;;;;;;5104845;28;20028;-44
2022/10/16 08:01:44;;;;;;;3.17;2.50;;;20.30;62.30;;;;;;5095995;28;20115;-45
2022/10/16 08:04:10;;;;;;;2.50;2.30;;;20.30;62.30;;;;;;5104271;28;20036;-42
2022/10/16 08:06:38;;;;;;;3.88;2.28;;;20.20;62.20;;;;;;5103679;28;20035;-42
2022/10/16 08:09:04;;;;;;;2.83;2.30;;;20.20;62.20;;;;;;5104826;28;20043;-43
2022/10/16 08:11:31;;;;;;;2.47;2.27;;;20.20;62.30;;;;;;5102938;28;20039;-42
2022/10/16 08:13:57;;;;;;;2.80;2.60;;;20.20;62.30;;;;;;5104337;28;20024;-43
2022/10/16 08:16:23;;;;;;;3.70;2.50;;;20.20;62.30;;;;;;5104025;28;20020;-41
2022/10/16 08:18:51;;;;;;;3.17;2.20;;;20.20;62.40;;;;;;5104607;28;20868;-42
2022/10/16 08:21:22;;;;;;;2.75;2.28;;;20.20;62.40;;;;;;5104146;28;20059;-46
2022/10/16 08:23:52;;;;;;;2.90;2.60;;;20.10;62.30;;;;;;5104124;28;20063;-42
2022/10/16 08:26:19;;;;;;;2.60;2.40;;;20.10;62.30;;;;;;5103930;28;20032;-43
2022/10/16 08:28:45;;;;;;;3.28;2.35;;;20.10;62.30;;;;;;5104150;28;20028;-42
2022/10/16 08:31:12;;;;;;;2.65;2.45;;;20.10;62.40;;;;;;5093910;28;20024;-44
2022/10/16 08:33:39;;;;;;;2.80;2.60;;;20.10;62.40;;;;;;5100929;28;20036;-42
2022/10/16 08:36:05;;;;;;;2.90;2.17;;;20.00;62.40;;;;;;5136576;27;20028;-42
2022/10/16 08:38:32;;;;;;;2.60;2.40;;;20.00;62.40;;;;;;5103593;28;20067;-42
2022/10/16 08:41:21;;;;;;;3.47;2.42;;;20.00;62.40;;;;;;5136545;27;20268;-44
2022/10/16 08:44:03;;;;;;;2.80;2.45;;;20.00;62.40;;;;;;5112876;27;20041;-42
2022/10/16 08:46:48;;;;;;;3.15;2.53;;;20.00;62.50;;;;;;5083456;28;20028;-42
2022/10/16 08:49:14;;;;;;;3.58;2.45;;;20.00;62.60;;;;;;5082160;28;20097;-42
2022/10/16 08:51:40;;;;;;;3.05;2.45;;;20.00;62.60;;;;;;5083374;28;20042;-41
2022/10/16 08:54:13;;;;;;;3.10;2.50;;;20.00;62.60;;;;;;5100506;28;20051;-42
2022/10/16 08:56:39;;;;;;;2.95;2.55;;;20.00;62.50;;;;;;5103625;28;20035;-44
2022/10/16 08:59:10;;;;;;;3.65;2.70;;;19.90;62.60;;;;;;5103752;28;20031;-42
2022/10/16 09:01:45;;;;;;;3.65;2.80;;;19.90;62.60;;;;;;5105208;28;20017;-42
2022/10/16 09:04:29;;;;;;;3.42;2.65;;;19.90;62.60;;;;;;5103418;28;20047;-42
2022/10/16 09:06:59;;;;;;;3.10;2.60;;;19.90;62.60;;;;;;5102730;28;20017;-42
2022/10/16 09:09:50;;;;;;;2.80;2.50;;;19.80;62.50;;;;;;5101975;28;20019;-42
2022/10/16 09:12:20;;;;;;;3.00;2.60;;;19.80;63.20;;;;;;5103074;28;20571;-42
2022/10/16 09:15:10;;;;;;;2.33;2.13;;;19.80;63.70;;;;;;5136064;27;20046;-43
2022/10/16 09:17:45;;;;;;;2.63;2.22;;;19.80;64.30;;;;;;5102475;28;20042;-46
2022/10/16 09:20:19;;;;;;;2.80;2.45;;;19.80;64.80;;;;;;5103327;28;20032;-43
2022/10/16 09:22:45;;;;;;;3.03;2.30;;;19.90;65.30;;;;;;5101651;28;20027;-43
2022/10/16 09:25:14;;;;;;;2.40;2.20;;;19.90;65.70;;;;;;5103276;28;20047;-42
2022/10/16 09:27:40;;;;;;;2.85;2.33;;;19.90;66.30;;;;;;5102966;28;20028;-42
2022/10/16 09:30:17;;;;;;;2.45;1.90;;;19.90;67.40;;;;;;5135087;27;20030;-42
2022/10/16 09:32:43;;;;;;;2.25;1.95;;;20.00;67.10;;;;;;5090540;28;20118;-43
2022/10/16 09:35:20;;;;;;;2.22;2.03;;;20.00;67.50;;;;;;5135770;27;20020;-44
2022/10/16 09:37:48;;;;;;;2.22;1.90;;;20.00;67.80;;;;;;5101520;28;20115;-42
2022/10/16 09:40:29;;;;;;;2.20;2.00;;;20.10;68.20;;;;;;5103237;28;20055;-44
2022/10/16 09:43:01;;;;;;;2.17;1.98;;;20.10;68.20;;;;;;5098397;28;20095;-42
2022/10/16 09:45:27;;;;;;;2.25;1.73;;;20.20;68.70;;;;;;5099025;28;20020;-42
2022/10/16 09:47:53;;;;;;;1.73;1.52;;;20.20;68.80;;;;;;5099890;28;20028;-43
2022/10/16 09:50:22;;;;;;;2.50;1.90;;;20.30;69.20;;;;;;5100347;28;20036;-43
2022/10/16 09:52:48;;;;;;;2.28;1.75;;;20.30;68.80;;;;;;5099891;28;20017;-44
2022/10/16 09:55:16;;;;;;;2.05;1.70;;;20.40;69.60;;;;;;5098667;28;20031;-44
2022/10/16 09:57:52;;;;;;;2.40;2.00;;;20.40;69.40;;;;;;5100102;28;20031;-42
2022/10/16 10:00:18;;;;;;;1.90;1.75;;;20.50;68.20;;;;;;5099259;28;20083;-42
2022/10/16 10:02:44;;;;;;;1.95;1.75;;;20.50;67.80;;;;;;5098309;28;20020;-41
2022/10/16 10:05:37;;;;;;;2.15;1.95;;;20.50;67.40;;;;;;5098608;28;20136;-42
2022/10/16 10:08:07;;;;;;;2.28;1.92;;;20.60;67.10;;;;;;5093932;28;20032;-43
2022/10/16 10:10:41;;;;;;;2.35;1.90;;;20.60;67.10;;;;;;5078298;28;20135;-42
2022/10/16 10:13:20;;;;;;;1.95;1.60;;;20.60;67.70;;;;;;5095562;28;20038;-42
2022/10/16 10:15:46;;;;;;;1.85;1.75;;;20.70;67.70;;;;;;5098070;28;20024;-42
2022/10/16 10:18:21;;;;;;;1.90;1.70;;;20.70;67.00;;;;;;5099948;28;20118;-42
2022/10/16 10:20:56;;;;;;;3.28;2.00;;;20.80;66.80;;;;;;5097530;28;20024;-42
2022/10/16 10:23:24;;;;;;;2.03;1.83;;;20.80;66.50;;;;;;5098602;28;20058;-42
2022/10/16 10:26:00;;;;;;;1.85;1.70;;;20.90;66.20;;;;;;5100046;28;20024;-42
2022/10/16 10:28:53;;;;;;;2.28;2.00;;;20.90;66.00;;;;;;5099325;28;20091;-42
2022/10/16 10:31:47;;;;;;;2.30;1.90;;;20.90;66.50;;;;;;5098555;28;20082;-42
2022/10/16 10:34:35;;;;;;;1.73;1.63;;;20.90;66.50;;;;;;5104959;28;20102;-43
2022/10/16 10:37:26;;;;;;;2.20;2.00;;;21.00;66.10;;;;;;5106522;28;20039;-42
2022/10/16 10:40:22;;;;;;;1.80;1.70;;;21.00;65.80;;;;;;5106329;28;20138;-41
2022/10/16 10:42:57;;;;;;;2.20;2.00;;;21.00;65.40;;;;;;5094221;28;20478;-45
2022/10/16 10:45:27;;;;;;;1.90;1.80;;;21.00;65.10;;;;;;5084564;28;20044;-42
2022/10/16 10:48:05;;;;;;;2.33;2.13;;;21.00;65.10;;;;;;5084444;28;20047;-43
2022/10/16 10:50:41;;;;;;;2.05;1.85;;;21.10;65.50;;;;;;5084151;28;20037;-42
2022/10/16 10:53:37;;;;;;;2.55;2.10;;;21.10;65.30;;;;;;5093195;28;20027;-42
2022/10/16 10:56:30;;;;;;;2.00;1.80;;;21.10;65.00;;;;;;5104622;28;20108;-42
2022/10/16 10:59:09;;;;;;;2.50;2.30;;;21.10;64.70;;;;;;5105728;28;20035;-42
2022/10/16 11:01:56;;;;;;;2.55;1.90;;;21.10;64.50;;;;;;5123198;27;20032;-42
2022/10/16 11:04:51;;;;;;;3.20;2.03;;;21.20;64.40;;;;;;5097760;28;20032;-43
2022/10/16 11:07:28;;;;;;;2.15;1.95;;;21.20;64.50;;;;;;5098240;28;20540;-42
2022/10/16 11:10:02;;;;;;;2.50;2.20;;;21.20;64.70;;;;;;5098072;28;20036;-42
2022/10/16 11:12:35;;;;;;;3.42;2.05;;;21.20;64.60;;;;;;5095125;28;20054;-42
2022/10/16 11:15:25;;;;;;;2.17;1.98;;;21.20;64.40;;;;;;5093570;28;20038;-43
2022/10/16 11:17:59;;;;;;;2.80;2.33;;;21.20;64.00;;;;;;5091360;28;20024;-44
2022/10/16 11:20:27;;;;;;;2.42;2.10;;;21.20;63.90;;;;;;5091452;28;20062;-42
2022/10/16 11:23:23;;;;;;;2.55;2.10;;;21.20;63.80;;;;;;5091491;28;20061;-43
2022/10/16 11:25:50;;;;;;;2.30;2.10;;;21.30;64.00;;;;;;5084263;28;20040;-43
2022/10/16 11:28:20;;;;;;;2.38;2.17;;;21.30;64.30;;;;;;5092433;28;20036;-42
2022/10/16 11:31:38;;;;;;;2.35;2.00;;;21.30;64.20;;;;;;5091329;28;20032;-42
2022/10/16 11:34:17;;;;;;;2.28;1.90;;;21.30;63.90;;;;;;5089188;28;20053;-45
2022/10/16 11:36:48;;;;;;;2.40;2.20;;;21.30;63.70;;;;;;5097432;28;20540;-44
2022/10/16 11:39:21;;;;;;;2.50;2.08;;;21.30;63.40;;;;;;5096415;28;20036;-42
2022/10/16 11:42:00;;;;;;;2.30;2.10;;;21.30;63.30;;;;;;5096590;28;20031;-42
2022/10/16 11:44:44;;;;;;;2.58;2.10;;;21.30;63.30;;;;;;5105017;28;20043;-42
2022/10/16 11:47:22;;;;;;;2.47;2.17;;;21.30;63.40;;;;;;5137708;27;20046;-44
2022/10/16 11:49:55;;;;;;;2.50;2.30;;;21.30;63.70;;;;;;5104736;28;20024;-43
2022/10/16 11:52:28;;;;;;;2.85;2.45;;;21.30;63.70;;;;;;5104448;28;20510;-42
2022/10/16 11:55:16;;;;;;;2.25;2.05;;;21.30;63.50;;;;;;5137678;27;20016;-42
2022/10/16 11:58:07;;;;;;;2.58;2.38;;;21.30;63.40;;;;;;5110899;28;20025;-44
2022/10/16 12:00:42;;;;;;;3.13;2.58;;;21.30;63.20;;;;;;5088613;28;20028;-44
2022/10/16 12:03:23;;;;;;;3.08;2.20;;;21.30;63.10;;;;;;5104555;28;20043;-43
2022/10/16 12:05:52;;;;;;;2.55;2.17;;;21.30;63.00;;;;;;5103678;28;20020;-43
2022/10/16 12:08:18;;;;;;;2.75;2.38;;;21.30;62.90;;;;;;5104745;28;20032;-45
2022/10/16 12:10:46;;;;;;;2.47;2.03;;;21.30;62.80;;;;;;5136935;27;20040;-46
2022/10/16 12:13:34;;;;;;;2.70;2.30;;;21.30;62.80;;;;;;5090516;28;20111;-43
2022/10/16 12:16:13;;;;;;;2.60;2.17;;;21.30;62.70;;;;;;5096929;28;20035;-43
2022/10/16 12:18:39;;;;;;;3.00;2.45;;;21.30;62.60;;;;;;5104097;28;20784;-42
2022/10/16 12:21:06;;;;;;;3.33;2.40;;;21.20;62.40;;;;;;5103744;28;20012;-44
2022/10/16 12:23:59;;;;;;;2.83;2.60;;;21.20;62.30;;;;;;5104354;28;20074;-44
2022/10/16 12:26:29;;;;;;;3.17;2.60;;;21.20;62.30;;;;;;5102308;28;20028;-43
2022/10/16 12:28:55;;;;;;;2.85;2.50;;;21.20;62.20;;;;;;5104227;28;20058;-44
2022/10/16 12:31:23;;;;;;;3.30;2.53;;;21.20;62.20;;;;;;5135830;27;20111;-42
2022/10/16 12:34:04;;;;;;;3.75;3.05;;;21.20;62.20;;;;;;5103734;28;20043;-42
2022/10/16 12:36:34;;;;;;;2.42;2.22;;;21.20;62.10;;;;;;5136081;27;20023;-43
2022/10/16 12:39:00;;;;;;;3.60;2.97;;;21.20;62.10;;;;;;5104180;28;20028;-42
2022/10/16 12:41:27;;;;;;;2.65;2.45;;;21.10;62.00;;;;;;5102148;28;20024;-43
2022/10/16 12:43:53;;;;;;;3.75;2.42;;;21.10;62.00;;;;;;5103857;28;20032;-42
2022/10/16 12:46:19;;;;;;;2.80;2.50;;;21.10;61.90;;;;;;5136885;27;20032;-42
2022/10/16 12:48:46;;;;;;;3.20;2.50;;;21.10;61.90;;;;;;5103875;28;20024;-46
2022/10/16 12:51:33;;;;;;;3.17;2.45;;;21.10;61.90;;;;;;5135154;27;20031;-43
2022/10/16 12:54:12;;;;;;;2.97;2.70;;;21.00;61.90;;;;;;5103682;28;20035;-43
2022/10/16 12:57:05;;;;;;;3.60;2.90;;;21.00;61.90;;;;;;5103705;28;20031;-42
2022/10/16 12:59:37;;;;;;;3.13;2.70;;;21.00;61.90;;;;;;5103882;28;20036;-41
2022/10/16 13:02:09;;;;;;;3.67;2.85;;;21.00;61.90;;;;;;5090170;28;20028;-42
2022/10/16 13:04:44;;;;;;;3.63;2.58;;;21.00;61.90;;;;;;5103446;28;20039;-43
2022/10/16 13:07:23;;;;;;;3.15;2.60;;;20.90;61.80;;;;;;5136303;27;20024;-43